createdAt,value
2022-12-06T00:01:42.892Z,9.10
2022-12-06T00:04:14.950Z,9.75
2022-12-06T00:06:47.890Z,9.68
2022-12-06T00:09:21.484Z,9.65
2022-12-06T00:11:50.512Z,9.20
2022-12-06T00:14:19.714Z,8.85
2022-12-06T00:16:49.053Z,9.68
2022-12-06T00:19:20.954Z,9.20
2022-12-06T00:21:50.169Z,8.52
2022-12-06T00:24:22.390Z,8.63
2022-12-06T00:26:52.151Z,8.82
2022-12-06T00:29:23.575Z,8.82
2022-12-06T00:31:52.668Z,8.75
2022-12-06T00:34:21.439Z,7.97
2022-12-06T00:36:50.323Z,8.52
2022-12-06T00:39:20.682Z,7.88
2022-12-06T00:41:49.427Z,8.65
2022-12-06T00:44:18.361Z,7.22
2022-12-06T00:46:47.010Z,7.05
2022-12-06T00:49:15.629Z,7.85
2022-12-06T00:51:44.411Z,7.90
2022-12-06T00:54:16.103Z,7.93
2022-12-06T00:56:46.266Z,7.65
2022-12-06T00:59:14.887Z,7.40
2022-12-06T01:01:43.582Z,7.32
2022-12-06T01:04:12.380Z,8.10
2022-12-06T01:06:41.024Z,7.47
2022-12-06T01:09:12.003Z,7.97
2022-12-06T01:11:40.785Z,7.28
2022-12-06T01:14:10.492Z,7.63
2022-12-06T01:16:39.941Z,7.57
2022-12-06T01:19:09.070Z,7.95
2022-12-06T01:21:37.384Z,7.22
2022-12-06T01:24:06.474Z,7.47
2022-12-06T01:26:36.764Z,7.05
2022-12-06T01:29:05.850Z,8.15
2022-12-06T01:31:38.663Z,6.78
2022-12-06T01:34:08.696Z,7.25
2022-12-06T01:36:37.049Z,7.13
2022-12-06T01:39:10.426Z,6.68
2022-12-06T01:41:40.095Z,7.40
2022-12-06T01:44:24.401Z,6.90
2022-12-06T01:46:54.064Z,6.28
2022-12-06T01:49:28.602Z,7.47
2022-12-06T01:52:01.065Z,6.28
2022-12-06T01:54:29.995Z,6.40
2022-12-06T01:56:59.285Z,6.15
2022-12-06T01:59:28.974Z,6.15
2022-12-06T02:01:59.101Z,5.80
2022-12-06T02:04:28.374Z,6.32
2022-12-06T02:06:58.226Z,5.90
2022-12-06T02:09:28.816Z,5.82
2022-12-06T02:14:30.375Z,5.93
2022-12-06T02:17:19.128Z,5.65
2022-12-06T02:20:05.202Z,5.95
2022-12-06T02:23:14.293Z,5.57
2022-12-06T02:26:18.677Z,5.45
2022-12-06T02:29:26.200Z,5.65
2022-12-06T02:31:59.518Z,5.50
2022-12-06T02:34:36.766Z,6.10
2022-12-06T02:37:12.479Z,5.78
2022-12-06T02:39:48.408Z,5.45
2022-12-06T02:42:21.987Z,6.07
2022-12-06T02:44:55.108Z,5.88
2022-12-06T02:47:31.384Z,5.80
2022-12-06T02:50:01.373Z,6.18
2022-12-06T02:52:32.288Z,5.72
2022-12-06T02:55:02.217Z,5.72
2022-12-06T02:57:42.203Z,6.18
2022-12-06T03:00:39.696Z,5.97
2022-12-06T03:03:27.303Z,5.95
2022-12-06T03:06:29.606Z,6.25
2022-12-06T03:09:14.655Z,6.30
2022-12-06T03:11:55.721Z,5.75
2022-12-06T03:14:26.471Z,5.95
2022-12-06T03:17:04.137Z,5.22
2022-12-06T03:19:35.618Z,6.40
2022-12-06T03:22:09.561Z,6.28
2022-12-06T03:24:41.523Z,5.63
2022-12-06T03:27:13.317Z,5.10
2022-12-06T03:29:46.636Z,5.97
2022-12-06T03:32:17.231Z,5.00
2022-12-06T03:34:52.231Z,5.88
2022-12-06T03:37:24.915Z,5.30
2022-12-06T03:40:04.696Z,5.07
2022-12-06T03:42:35.116Z,5.07
2022-12-06T03:45:05.185Z,5.13
2022-12-06T03:47:41.683Z,5.05
2022-12-06T03:50:18.749Z,5.38
2022-12-06T03:52:47.376Z,4.95
2022-12-06T03:55:15.688Z,6.18
2022-12-06T03:57:45.004Z,5.07
2022-12-06T04:00:17.722Z,5.45
2022-12-06T04:02:46.202Z,5.05
2022-12-06T04:05:15.927Z,4.88
2022-12-06T04:07:44.282Z,5.40
2022-12-06T04:10:13.181Z,4.60
2022-12-06T04:12:55.476Z,5.22
2022-12-06T04:15:24.716Z,5.50
2022-12-06T04:18:10.679Z,5.13
2022-12-06T04:21:17.920Z,4.60
2022-12-06T04:23:48.812Z,5.00
2022-12-06T04:26:20.286Z,5.20
2022-12-06T04:29:07.133Z,5.85
2022-12-06T04:31:53.393Z,5.25
2022-12-06T04:34:39.255Z,5.00
2022-12-06T04:37:26.900Z,5.05
2022-12-06T04:39:55.205Z,5.32
2022-12-06T04:42:40.999Z,5.68
2022-12-06T04:45:10.498Z,5.35
2022-12-06T04:47:38.816Z,5.30
2022-12-06T04:50:08.687Z,5.55
2022-12-06T04:52:38.311Z,4.95
2022-12-06T04:55:07.424Z,5.20
2022-12-06T04:57:35.678Z,5.18
2022-12-06T05:00:04.397Z,5.47
2022-12-06T05:02:32.673Z,4.80
2022-12-06T05:05:00.953Z,5.68
2022-12-06T05:07:29.116Z,5.53
2022-12-06T05:09:59.035Z,5.28
2022-12-06T05:12:27.502Z,5.22
2022-12-06T05:14:55.692Z,5.20
2022-12-06T05:17:23.999Z,5.65
2022-12-06T05:19:52.245Z,5.30
2022-12-06T05:22:20.579Z,5.20
2022-12-06T05:24:48.937Z,5.60
2022-12-06T05:27:18.653Z,5.80
2022-12-06T05:29:46.992Z,5.77
2022-12-06T05:32:15.244Z,5.95
2022-12-06T05:34:43.491Z,5.70
2022-12-06T05:37:11.830Z,6.15
2022-12-06T05:39:40.103Z,5.28
2022-12-06T05:42:08.382Z,4.88
2022-12-06T05:44:37.948Z,5.13
2022-12-06T05:47:06.376Z,5.00
2022-12-06T05:49:34.715Z,5.20
2022-12-06T05:52:04.337Z,5.10
2022-12-06T05:54:32.732Z,4.70
2022-12-06T05:57:00.978Z,5.28
2022-12-06T05:59:29.325Z,5.43
2022-12-06T06:01:59.047Z,5.05
2022-12-06T06:04:27.439Z,5.28
2022-12-06T06:06:55.696Z,5.15
2022-12-06T06:09:24.623Z,5.55
2022-12-06T06:11:52.975Z,5.03
2022-12-06T06:14:21.392Z,4.80
2022-12-06T06:16:51.929Z,5.15
2022-12-06T06:21:52.319Z,5.22
2022-12-06T06:24:20.632Z,4.90
2022-12-06T06:26:49.044Z,5.88
2022-12-06T06:29:17.306Z,5.63
2022-12-06T06:31:45.724Z,5.70
2022-12-06T06:34:14.173Z,5.40
2022-12-06T06:36:45.915Z,5.18
2022-12-06T06:39:14.652Z,5.60
2022-12-06T06:41:42.919Z,5.63
2022-12-06T06:44:11.337Z,5.40
2022-12-06T06:46:39.673Z,5.35
2022-12-06T06:49:08.023Z,5.35
2022-12-06T06:51:36.289Z,5.30
2022-12-06T06:54:06.718Z,5.50
2022-12-06T06:56:35.034Z,5.68
2022-12-06T06:59:03.548Z,5.63
2022-12-06T07:01:32.245Z,5.32
2022-12-06T07:04:00.603Z,5.70
2022-12-06T07:06:28.963Z,5.07
2022-12-06T07:08:57.301Z,5.80
2022-12-06T07:11:26.927Z,5.32
2022-12-06T07:13:55.244Z,5.85
2022-12-06T07:16:23.611Z,5.70
2022-12-06T07:18:51.978Z,5.70
2022-12-06T07:21:23.303Z,6.30
2022-12-06T07:23:52.417Z,5.68
2022-12-06T07:26:23.250Z,6.00
2022-12-06T07:28:53.005Z,6.70
2022-12-06T07:31:24.601Z,6.07
2022-12-06T07:33:55.011Z,5.80
2022-12-06T07:36:23.909Z,6.72
2022-12-06T07:38:54.778Z,6.43
2022-12-06T07:41:43.976Z,6.75
2022-12-06T07:44:40.412Z,6.72
2022-12-06T07:47:08.789Z,6.00
2022-12-06T07:49:37.104Z,6.10
2022-12-06T07:52:05.536Z,6.65
2022-12-06T07:54:33.808Z,6.13
2022-12-06T07:57:02.629Z,5.72
2022-12-06T07:59:32.288Z,6.53
2022-12-06T08:02:00.636Z,5.77
2022-12-06T08:04:29.098Z,6.25
2022-12-06T08:06:57.758Z,6.53
2022-12-06T08:09:26.051Z,6.05
2022-12-06T08:11:54.380Z,6.38
2022-12-06T08:14:23.257Z,5.57
2022-12-06T08:16:53.155Z,5.97
2022-12-06T08:19:21.684Z,6.70
2022-12-06T08:21:50.234Z,6.85
2022-12-06T08:24:18.660Z,6.50
2022-12-06T08:26:47.496Z,5.43
2022-12-06T08:29:16.566Z,5.63
2022-12-06T08:31:45.632Z,5.93
2022-12-06T08:34:16.346Z,6.25
2022-12-06T08:36:44.901Z,5.50
2022-12-06T08:39:14.940Z,6.65
2022-12-06T08:42:03.479Z,7.32
2022-12-06T08:44:33.209Z,9.07
2022-12-06T08:47:03.634Z,7.43
2022-12-06T08:49:33.400Z,7.55
2022-12-06T08:52:01.815Z,6.73
2022-12-06T08:54:30.819Z,7.25
2022-12-06T08:56:59.199Z,5.93
2022-12-06T08:59:27.540Z,6.72
2022-12-06T09:01:55.994Z,6.32
2022-12-06T09:04:24.468Z,6.82
2022-12-06T09:06:54.174Z,6.70
2022-12-06T09:09:22.583Z,5.93
2022-12-06T09:11:51.790Z,5.85
2022-12-06T09:14:22.161Z,6.32
2022-12-06T09:19:20.884Z,6.95
2022-12-06T09:21:49.382Z,6.18
2022-12-06T09:24:20.463Z,6.07
2022-12-06T09:26:49.173Z,5.72
2022-12-06T09:29:18.254Z,6.22
2022-12-06T09:31:46.846Z,7.40
2022-12-06T09:34:16.954Z,7.18
2022-12-06T09:36:48.485Z,7.38
2022-12-06T09:39:22.298Z,7.93
2022-12-06T09:42:29.925Z,7.53
2022-12-06T09:45:22.108Z,7.47
2022-12-06T09:48:15.693Z,7.05
2022-12-06T09:50:53.596Z,7.07
2022-12-06T09:53:32.592Z,7.35
2022-12-06T09:56:13.213Z,7.35
2022-12-06T09:58:58.377Z,6.88
2022-12-06T10:01:43.136Z,7.20
2022-12-06T10:04:58.647Z,7.20
2022-12-06T10:07:34.731Z,7.40
2022-12-06T10:10:19.671Z,7.05
2022-12-06T10:13:02.817Z,7.30
2022-12-06T10:15:46.408Z,6.80
2022-12-06T10:18:35.283Z,6.93
2022-12-06T10:21:14.577Z,6.97
2022-12-06T10:24:01.991Z,7.65
2022-12-06T10:26:40.728Z,7.10
2022-12-06T10:29:25.943Z,8.23
2022-12-06T10:32:00.685Z,7.47
2022-12-06T10:34:49.009Z,7.30
2022-12-06T10:37:31.612Z,7.18
2022-12-06T10:40:12.040Z,7.60
2022-12-06T10:42:44.542Z,7.53
2022-12-06T10:45:41.753Z,7.65
2022-12-06T10:48:17.798Z,7.80
2022-12-06T10:50:52.560Z,6.95
2022-12-06T10:53:23.776Z,7.93
2022-12-06T10:55:58.811Z,7.43
2022-12-06T10:58:36.243Z,7.82
2022-12-06T11:01:13.501Z,7.43
2022-12-06T11:03:56.015Z,6.95
2022-12-06T11:06:32.383Z,6.63
2022-12-06T11:09:19.857Z,6.00
2022-12-06T11:11:51.272Z,5.40
2022-12-06T11:14:25.753Z,5.70
2022-12-06T11:17:03.502Z,4.72
2022-12-06T11:19:38.247Z,4.43
2022-12-06T11:22:18.731Z,5.07
2022-12-06T11:24:57.098Z,4.72
2022-12-06T11:27:34.745Z,4.85
2022-12-06T11:30:04.677Z,4.80
2022-12-06T11:32:34.421Z,4.30
2022-12-06T11:35:03.050Z,4.80
2022-12-06T11:37:37.715Z,4.80
2022-12-06T11:40:21.507Z,3.80
2022-12-06T11:42:50.230Z,3.33
2022-12-06T11:45:26.325Z,3.65
2022-12-06T11:47:57.623Z,3.15
2022-12-06T11:50:30.365Z,3.25
2022-12-06T11:53:05.209Z,3.20
2022-12-06T11:55:38.278Z,3.50
2022-12-06T11:58:13.614Z,3.55
2022-12-06T12:00:59.668Z,3.85
2022-12-06T12:03:31.955Z,3.67
2022-12-06T12:06:25.997Z,3.65
2022-12-06T12:09:06.507Z,3.85
2022-12-06T12:11:42.059Z,3.35
2022-12-06T12:14:28.953Z,3.45
2022-12-06T12:17:02.469Z,3.10
2022-12-06T12:19:39.816Z,3.40
2022-12-06T12:22:26.590Z,3.10
2022-12-06T12:27:49.742Z,3.08
2022-12-06T12:30:34.642Z,3.50
2022-12-06T12:33:22.240Z,3.72
2022-12-06T12:35:56.665Z,4.03
2022-12-06T12:38:37.324Z,3.95
2022-12-06T12:41:18.977Z,4.32
2022-12-06T12:44:13.809Z,4.20
2022-12-06T12:46:48.993Z,5.00
2022-12-06T12:49:29.422Z,5.03
2022-12-06T12:52:00.629Z,5.03
2022-12-06T12:54:33.545Z,5.07
2022-12-06T12:57:05.807Z,4.70
2022-12-06T12:59:40.295Z,4.63
2022-12-06T13:02:21.863Z,4.97
2022-12-06T13:05:11.096Z,4.68
2022-12-06T13:07:45.311Z,5.07
2022-12-06T13:10:22.270Z,4.55
2022-12-06T13:12:55.213Z,4.38
2022-12-06T13:15:33.363Z,4.15
2022-12-06T13:18:12.378Z,4.75
2022-12-06T13:20:42.524Z,4.38
2022-12-06T13:23:18.275Z,3.78
2022-12-06T13:25:53.525Z,3.92
2022-12-06T13:28:28.436Z,4.18
2022-12-06T13:31:05.421Z,4.80
2022-12-06T13:33:37.633Z,3.75
2022-12-06T13:36:10.669Z,4.22
2022-12-06T13:38:42.751Z,4.13
2022-12-06T13:41:15.015Z,3.95
2022-12-06T13:43:51.418Z,3.92
2022-12-06T13:46:30.370Z,3.75
2022-12-06T13:49:26.757Z,3.97
2022-12-06T13:51:55.295Z,3.67
2022-12-06T13:54:42.925Z,3.70
2022-12-06T13:57:32.783Z,4.07
2022-12-06T14:00:01.566Z,4.22
2022-12-06T14:02:46.561Z,3.97
2022-12-06T14:08:32.613Z,4.07
2022-12-06T14:11:23.544Z,4.15
2022-12-06T14:14:04.013Z,3.83
2022-12-06T14:16:37.158Z,4.47
2022-12-06T14:19:18.252Z,3.78
2022-12-06T14:21:56.067Z,3.75
2022-12-06T14:24:35.512Z,4.15
2022-12-06T14:27:11.325Z,3.78
2022-12-06T14:29:40.163Z,4.38
2022-12-06T14:32:08.683Z,4.60
2022-12-06T14:34:38.274Z,4.63
2022-12-06T14:37:21.229Z,4.93
2022-12-06T14:39:53.834Z,4.88
2022-12-06T14:42:41.668Z,4.43
2022-12-06T14:45:16.028Z,4.03
2022-12-06T14:47:46.233Z,4.50
2022-12-06T14:50:32.860Z,4.05
2022-12-06T14:53:06.428Z,4.57
2022-12-06T14:55:36.568Z,4.40
2022-12-06T14:58:17.812Z,4.95
2022-12-06T15:00:53.901Z,4.50
2022-12-06T15:03:33.152Z,4.53
2022-12-06T15:06:16.588Z,4.68
2022-12-06T15:08:50.454Z,4.32
2022-12-06T15:11:51.542Z,4.85
2022-12-06T15:14:23.439Z,4.88
2022-12-06T15:17:01.617Z,4.22
2022-12-06T15:19:32.485Z,4.18
2022-12-06T15:22:01.396Z,4.18
2022-12-06T15:24:30.639Z,3.92
2022-12-06T15:26:58.982Z,4.40
2022-12-06T15:29:28.626Z,4.30
2022-12-06T15:31:57.165Z,4.13
2022-12-06T15:34:29.176Z,4.30
2022-12-06T15:37:30.296Z,3.97
2022-12-06T15:39:48.436Z,4.15
2022-12-06T15:42:20.236Z,3.90
2022-12-06T15:44:51.683Z,3.78
2022-12-06T15:47:20.747Z,4.13
2022-12-06T15:49:51.720Z,5.95
2022-12-06T15:52:23.258Z,5.60
2022-12-06T15:54:52.066Z,4.82
2022-12-06T15:57:20.391Z,4.25
2022-12-06T15:59:50.110Z,4.35
2022-12-06T16:02:19.878Z,4.10
2022-12-06T16:04:50.935Z,4.50
2022-12-06T16:07:19.704Z,3.92
2022-12-06T16:09:48.884Z,4.07
2022-12-06T16:12:17.996Z,3.80
2022-12-06T16:14:46.344Z,3.35
2022-12-06T16:17:16.015Z,3.92
2022-12-06T16:20:01.908Z,3.67
2022-12-06T16:22:47.492Z,3.40
2022-12-06T16:25:15.906Z,3.55
2022-12-06T16:27:44.514Z,3.65
2022-12-06T16:30:13.806Z,3.63
2022-12-06T16:32:43.572Z,7.97
2022-12-06T16:35:11.863Z,23.53
2022-12-06T16:37:40.523Z,3.42
2022-12-06T16:40:16.829Z,3.20
2022-12-06T16:42:46.455Z,3.63
2022-12-06T16:45:15.561Z,3.28
2022-12-06T16:47:45.950Z,3.90
2022-12-06T16:50:22.535Z,3.20
2022-12-06T16:52:51.730Z,3.08
2022-12-06T16:55:20.314Z,3.42
2022-12-06T16:57:48.930Z,3.40
2022-12-06T17:00:18.582Z,3.40
2022-12-06T17:02:48.511Z,4.05
2022-12-06T17:05:20.701Z,3.78
2022-12-06T17:07:49.174Z,3.80
2022-12-06T17:10:18.234Z,3.88
2022-12-06T17:12:48.245Z,3.75
2022-12-06T17:15:19.108Z,3.83
2022-12-06T17:17:49.249Z,4.38
2022-12-06T17:20:19.693Z,3.88
2022-12-06T17:22:48.448Z,4.18
2022-12-06T17:25:17.521Z,4.20
2022-12-06T17:27:46.229Z,3.67
2022-12-06T17:30:18.706Z,4.35
2022-12-06T17:32:48.762Z,5.18
2022-12-06T17:35:17.357Z,5.53
2022-12-06T17:37:45.660Z,5.18
2022-12-06T17:40:15.421Z,5.47
2022-12-06T17:43:00.722Z,7.73
2022-12-06T17:45:29.449Z,5.30
2022-12-06T17:47:59.127Z,4.90
2022-12-06T17:50:27.521Z,4.50
2022-12-06T17:52:55.878Z,8.00
2022-12-06T17:55:24.273Z,4.78
2022-12-06T17:57:52.652Z,4.45
2022-12-06T18:00:21.895Z,4.93
2022-12-06T18:02:50.299Z,5.18
2022-12-06T18:05:20.355Z,5.72
2022-12-06T18:07:48.823Z,5.50
2022-12-06T18:10:17.322Z,6.15
2022-12-06T18:12:45.643Z,5.93
2022-12-06T18:15:27.817Z,6.60
2022-12-06T18:17:56.160Z,5.50
2022-12-06T18:20:25.781Z,5.75
2022-12-06T18:22:54.129Z,5.53
2022-12-06T18:25:22.522Z,6.22
2022-12-06T18:27:50.926Z,5.50
2022-12-06T18:30:19.529Z,6.13
2022-12-06T18:32:47.922Z,6.80
2022-12-06T18:35:16.480Z,6.03
2022-12-06T18:37:46.233Z,6.22
2022-12-06T18:40:14.910Z,6.27
2022-12-06T18:42:43.170Z,5.28
2022-12-06T18:45:12.254Z,4.75
2022-12-06T18:47:40.553Z,5.15
2022-12-06T18:50:10.475Z,5.20
2022-12-06T18:52:38.922Z,5.30
2022-12-06T18:55:09.995Z,4.93
2022-12-06T18:57:38.593Z,5.22
2022-12-06T19:00:09.082Z,5.38
2022-12-06T19:02:37.457Z,5.38
2022-12-06T19:05:06.983Z,5.57
2022-12-06T19:07:35.936Z,4.75
2022-12-06T19:10:05.010Z,5.50
2022-12-06T19:12:34.837Z,5.35
2022-12-06T19:15:03.253Z,4.80
2022-12-06T19:17:31.587Z,5.20
2022-12-06T19:20:00.205Z,5.38
2022-12-06T19:22:28.703Z,5.47
2022-12-06T19:24:57.141Z,5.38
2022-12-06T19:27:25.484Z,5.65
2022-12-06T19:29:55.266Z,4.97
2022-12-06T19:32:23.586Z,4.50
2022-12-06T19:34:52.375Z,4.70
2022-12-06T19:37:20.736Z,4.57
2022-12-06T19:39:49.183Z,4.93
2022-12-06T19:42:35.262Z,4.95
2022-12-06T19:45:05.830Z,4.45
2022-12-06T19:47:34.222Z,4.82
2022-12-06T19:50:02.950Z,4.68
2022-12-06T19:52:31.540Z,4.38
2022-12-06T19:54:59.825Z,4.70
2022-12-06T19:57:28.206Z,4.05
2022-12-06T19:59:56.617Z,4.40
2022-12-06T20:02:26.516Z,4.30
2022-12-06T20:04:54.908Z,5.05
2022-12-06T20:07:23.293Z,4.78
2022-12-06T20:09:51.599Z,5.07
2022-12-06T20:12:19.910Z,4.85
2022-12-06T20:14:50.263Z,5.25
2022-12-06T20:17:21.930Z,4.78
2022-12-06T20:19:51.979Z,5.38
2022-12-06T20:22:22.666Z,5.30
2022-12-06T20:24:51.548Z,5.18
2022-12-06T20:27:42.282Z,5.03
2022-12-06T20:30:12.332Z,5.20
2022-12-06T20:32:40.755Z,4.80
2022-12-06T20:35:10.847Z,4.90
2022-12-06T20:37:39.257Z,4.75
2022-12-06T20:40:09.829Z,5.30
2022-12-06T20:42:38.144Z,4.70
2022-12-06T20:45:07.595Z,4.93
2022-12-06T20:47:35.960Z,5.25
2022-12-06T20:50:05.025Z,5.60
2022-12-06T20:52:34.760Z,5.15
2022-12-06T20:55:03.045Z,4.97
2022-12-06T20:57:31.346Z,4.53
2022-12-06T21:00:05.271Z,4.70
2022-12-06T21:02:35.626Z,5.22
2022-12-06T21:05:04.337Z,4.45
2022-12-06T21:07:34.456Z,4.43
2022-12-06T21:10:03.179Z,4.97
2022-12-06T21:12:31.725Z,4.43
2022-12-06T21:15:00.116Z,4.63
2022-12-06T21:17:28.384Z,4.38
2022-12-06T21:19:56.811Z,4.07
2022-12-06T21:22:25.121Z,4.75
2022-12-06T21:24:56.623Z,4.45
2022-12-06T21:27:25.013Z,4.80
2022-12-06T21:29:53.266Z,4.72
2022-12-06T21:32:22.669Z,4.53
2022-12-06T21:34:50.949Z,4.30
2022-12-06T21:37:19.310Z,4.80
2022-12-06T21:39:47.721Z,4.55
2022-12-06T21:42:20.915Z,4.65
2022-12-06T21:44:49.849Z,4.55
2022-12-06T21:47:18.233Z,5.40
2022-12-06T21:49:46.646Z,6.65
2022-12-06T21:52:14.978Z,7.00
2022-12-06T21:54:43.361Z,6.30
2022-12-06T21:57:11.745Z,5.90
2022-12-06T21:59:41.503Z,5.78
2022-12-06T22:02:11.002Z,5.55
2022-12-06T22:04:39.656Z,5.35
2022-12-06T22:07:08.072Z,5.32
2022-12-06T22:09:36.337Z,6.28
2022-12-06T22:12:05.210Z,6.05
2022-12-06T22:14:33.490Z,5.45
2022-12-06T22:17:03.278Z,5.80
2022-12-06T22:19:31.594Z,6.07
2022-12-06T22:22:00.054Z,6.32
2022-12-06T22:24:28.501Z,5.50
2022-12-06T22:26:56.761Z,5.13
2022-12-06T22:29:25.213Z,5.53
2022-12-06T22:31:53.532Z,5.10
2022-12-06T22:34:23.311Z,5.38
2022-12-06T22:36:51.647Z,6.20
2022-12-06T22:39:20.342Z,4.70
2022-12-06T22:41:48.793Z,5.22
2022-12-06T22:44:18.055Z,5.88
2022-12-06T22:46:46.428Z,5.40
2022-12-06T22:49:18.061Z,5.32
2022-12-06T22:51:48.112Z,5.18
2022-12-06T22:54:16.729Z,5.63
2022-12-06T22:56:48.715Z,5.55
2022-12-06T22:59:18.936Z,5.20
2022-12-06T23:01:47.415Z,6.25
2022-12-06T23:04:15.880Z,5.38
2022-12-06T23:06:44.520Z,5.88
2022-12-06T23:09:16.992Z,5.43
2022-12-06T23:11:45.565Z,5.18
2022-12-06T23:14:13.825Z,5.47
2022-12-06T23:16:43.731Z,5.30
2022-12-06T23:19:12.304Z,5.75
2022-12-06T23:21:42.443Z,5.55
2022-12-06T23:24:14.762Z,6.13
2022-12-06T23:26:46.900Z,5.78
2022-12-06T23:29:16.542Z,5.22
2022-12-06T23:31:47.014Z,5.30
2022-12-06T23:34:20.445Z,5.05
2022-12-06T23:36:48.818Z,5.47
2022-12-06T23:39:18.712Z,5.45
2022-12-06T23:41:47.100Z,5.45
2022-12-06T23:44:15.396Z,5.43
2022-12-06T23:46:45.819Z,5.38
2022-12-06T23:51:47.022Z,5.85
2022-12-06T23:54:18.712Z,5.78
2022-12-06T23:56:47.639Z,5.57
2022-12-06T23:59:18.345Z,5.07
